createdAt,value
2022-10-23T00:01:16.228Z,12.21
2022-10-23T00:03:18.812Z,12.16
2022-10-23T00:05:22.505Z,12.12
2022-10-23T00:07:25.145Z,12.12
2022-10-23T00:09:27.782Z,12.11
2022-10-23T00:11:31.748Z,12.10
2022-10-23T00:13:34.799Z,12.03
2022-10-23T00:15:38.778Z,11.95
2022-10-23T00:17:41.722Z,11.91
2022-10-23T00:19:44.541Z,11.89
2022-10-23T00:21:47.232Z,11.93
2022-10-23T00:23:49.911Z,11.91
2022-10-23T00:25:52.577Z,11.94
2022-10-23T00:27:55.126Z,11.98
2022-10-23T00:29:57.713Z,11.99
2022-10-23T00:32:01.627Z,11.99
2022-10-23T00:34:07.993Z,12.03
2022-10-23T00:36:13.301Z,12.03
2022-10-23T00:38:15.876Z,11.99
2022-10-23T00:40:18.565Z,12.01
2022-10-23T00:42:22.416Z,12.01
2022-10-23T00:45:02.428Z,11.98
2022-10-23T00:47:06.428Z,12.00
2022-10-23T00:51:18.209Z,12.01
2022-10-23T00:53:22.029Z,11.99
2022-10-23T00:55:26.467Z,12.00
2022-10-23T00:59:36.939Z,11.94
2022-10-23T01:01:39.778Z,11.96
2022-10-23T01:03:43.830Z,11.92
2022-10-23T01:05:50.874Z,11.88
2022-10-23T01:07:57.671Z,11.87
2022-10-23T01:10:06.700Z,11.88
2022-10-23T01:12:17.220Z,11.88
2022-10-23T01:14:27.247Z,11.89
2022-10-23T01:16:38.856Z,11.91
2022-10-23T01:18:46.784Z,11.94
2022-10-23T01:20:56.269Z,11.96
2022-10-23T01:23:13.301Z,12.00
2022-10-23T01:25:30.535Z,12.01
2022-10-23T01:27:37.546Z,12.05
2022-10-23T01:29:44.728Z,12.06
2022-10-23T01:31:51.997Z,12.01
2022-10-23T01:34:00.576Z,12.12
2022-10-23T01:36:07.139Z,11.97
2022-10-23T01:38:13.791Z,11.94
2022-10-23T01:40:23.493Z,11.87
2022-10-23T01:42:32.168Z,11.84
2022-10-23T01:44:40.391Z,11.84
2022-10-23T01:46:45.340Z,11.89
2022-10-23T01:48:52.195Z,11.87
2022-10-23T01:50:58.125Z,11.85
2022-10-23T01:53:00.822Z,11.83
2022-10-23T01:55:03.440Z,11.78
2022-10-23T01:57:09.464Z,11.75
2022-10-23T01:59:15.955Z,11.74
2022-10-23T02:01:23.407Z,11.73
2022-10-23T02:03:29.671Z,11.72
2022-10-23T02:05:32.988Z,11.74
2022-10-23T02:07:36.182Z,11.70
2022-10-23T02:09:39.105Z,11.70
2022-10-23T02:11:53.646Z,11.71
2022-10-23T02:14:00.561Z,11.71
2022-10-23T02:16:13.269Z,11.72
2022-10-23T02:18:32.390Z,11.68
2022-10-23T02:20:40.636Z,11.69
2022-10-23T02:22:49.835Z,11.67
2022-10-23T02:24:55.569Z,11.68
2022-10-23T02:27:02.233Z,11.66
2022-10-23T02:29:09.665Z,11.64
2022-10-23T02:31:16.893Z,11.59
2022-10-23T02:33:21.100Z,11.57
2022-10-23T02:35:25.816Z,11.58
2022-10-23T02:37:28.445Z,11.58
2022-10-23T02:39:31.343Z,11.63
2022-10-23T02:41:41.416Z,11.63
2022-10-23T02:43:51.849Z,11.65
2022-10-23T02:46:00.567Z,11.65
2022-10-23T02:48:13.326Z,11.67
2022-10-23T02:50:28.243Z,11.63
2022-10-23T02:52:38.960Z,11.59
2022-10-23T02:54:52.027Z,11.57
2022-10-23T02:57:04.029Z,11.58
2022-10-23T02:59:15.467Z,11.55
2022-10-23T03:01:21.929Z,11.57
2022-10-23T03:03:30.709Z,11.65
2022-10-23T03:05:39.625Z,11.65
2022-10-23T03:07:42.741Z,11.69
2022-10-23T03:09:45.575Z,11.71
2022-10-23T03:11:48.170Z,11.73
2022-10-23T03:13:50.782Z,11.72
2022-10-23T03:15:53.347Z,11.70
2022-10-23T03:17:56.172Z,11.70
2022-10-23T03:19:58.770Z,11.54
2022-10-23T03:22:02.677Z,11.61
2022-10-23T03:24:05.545Z,11.62
2022-10-23T03:26:08.123Z,11.64
2022-10-23T03:28:10.709Z,11.66
2022-10-23T03:30:13.793Z,11.68
2022-10-23T03:32:16.411Z,11.70
2022-10-23T03:34:19.355Z,11.73
2022-10-23T03:36:21.975Z,11.72
2022-10-23T03:38:26.137Z,11.73
2022-10-23T03:40:28.742Z,11.73
2022-10-23T03:42:33.756Z,11.72
2022-10-23T03:44:36.304Z,11.72
2022-10-23T03:46:39.030Z,11.71
2022-10-23T03:48:42.082Z,11.70
2022-10-23T03:50:44.675Z,11.73
2022-10-23T03:52:47.325Z,11.66
2022-10-23T03:54:51.201Z,11.68
2022-10-23T03:56:56.651Z,11.66
2022-10-23T03:59:00.535Z,11.64
2022-10-23T04:01:03.273Z,11.59
2022-10-23T04:03:05.882Z,11.58
2022-10-23T04:05:08.817Z,11.54
2022-10-23T04:07:11.585Z,11.53
2022-10-23T04:09:14.283Z,11.51
2022-10-23T04:11:18.594Z,11.52
2022-10-23T04:13:21.121Z,11.52
2022-10-23T04:15:23.691Z,11.52
2022-10-23T04:19:33.808Z,11.45
2022-10-23T04:21:36.480Z,11.43
2022-10-23T04:23:39.123Z,11.40
2022-10-23T04:25:41.776Z,11.43
2022-10-23T04:27:46.119Z,11.41
2022-10-23T04:29:49.137Z,11.42
2022-10-23T04:31:52.393Z,11.52
2022-10-23T04:33:55.007Z,11.47
2022-10-23T04:35:57.651Z,11.39
2022-10-23T04:38:03.623Z,11.38
2022-10-23T04:40:07.196Z,11.39
2022-10-23T04:42:09.831Z,11.40
2022-10-23T04:44:13.785Z,11.36
2022-10-23T04:46:16.403Z,11.33
2022-10-23T04:48:19.027Z,11.34
2022-10-23T04:50:21.696Z,11.32
2022-10-23T04:52:24.275Z,11.33
2022-10-23T04:54:26.853Z,11.34
2022-10-23T04:56:29.449Z,11.30
2022-10-23T04:58:32.483Z,11.27
2022-10-23T05:00:36.437Z,11.30
2022-10-23T05:02:39.059Z,11.26
2022-10-23T05:04:41.720Z,11.29
2022-10-23T05:06:44.271Z,11.29
2022-10-23T05:08:46.941Z,11.31
2022-10-23T05:10:50.540Z,11.34
2022-10-23T05:12:53.094Z,11.31
2022-10-23T05:14:55.679Z,11.31
2022-10-23T05:17:03.287Z,11.33
2022-10-23T05:19:07.874Z,11.27
2022-10-23T05:21:14.631Z,11.26
2022-10-23T05:23:21.303Z,11.26
2022-10-23T05:25:23.878Z,11.21
2022-10-23T05:27:26.410Z,11.22
2022-10-23T05:29:29.020Z,11.20
2022-10-23T05:31:32.901Z,11.22
2022-10-23T05:33:37.361Z,11.21
2022-10-23T05:35:41.269Z,11.22
2022-10-23T05:37:46.396Z,11.22
2022-10-23T05:39:49.005Z,11.14
2022-10-23T05:41:52.313Z,11.15
2022-10-23T05:43:54.918Z,11.16
2022-10-23T05:45:57.521Z,11.17
2022-10-23T05:48:10.713Z,11.17
2022-10-23T05:50:24.128Z,11.16
2022-10-23T05:52:26.848Z,11.19
2022-10-23T05:54:29.412Z,11.18
2022-10-23T05:56:32.048Z,11.18
2022-10-23T05:58:35.227Z,11.19
2022-10-23T06:00:37.831Z,11.21
2022-10-23T06:02:40.560Z,11.20
2022-10-23T06:04:43.263Z,11.22
2022-10-23T06:06:47.929Z,11.22
2022-10-23T06:08:50.547Z,11.22
2022-10-23T06:10:53.161Z,11.23
2022-10-23T06:12:55.743Z,11.24
2022-10-23T06:14:58.670Z,11.25
2022-10-23T06:17:01.268Z,11.29
2022-10-23T06:19:04.418Z,11.27
2022-10-23T06:21:07.284Z,11.26
2022-10-23T06:23:11.214Z,11.29
2022-10-23T06:25:13.751Z,11.27
2022-10-23T06:27:16.311Z,11.26
2022-10-23T06:29:18.935Z,11.30
2022-10-23T06:31:26.464Z,11.36
2022-10-23T06:33:29.048Z,11.32
2022-10-23T06:35:31.669Z,11.30
2022-10-23T06:37:35.073Z,11.33
2022-10-23T06:39:40.420Z,11.34
2022-10-23T06:41:44.321Z,11.34
2022-10-23T06:43:49.039Z,11.36
2022-10-23T06:45:51.603Z,11.39
2022-10-23T06:47:54.238Z,11.40
2022-10-23T06:49:56.784Z,11.40
2022-10-23T06:51:59.366Z,11.42
2022-10-23T06:54:01.925Z,11.43
2022-10-23T06:56:07.750Z,11.45
2022-10-23T06:58:11.348Z,11.46
2022-10-23T07:00:14.594Z,11.44
2022-10-23T07:02:17.534Z,11.47
2022-10-23T07:04:20.110Z,11.54
2022-10-23T07:06:22.805Z,11.51
2022-10-23T07:08:25.382Z,11.55
2022-10-23T07:10:28.055Z,11.59
2022-10-23T07:12:32.084Z,11.62
2022-10-23T07:14:34.664Z,11.57
2022-10-23T07:16:37.195Z,11.64
2022-10-23T07:18:39.889Z,11.70
2022-10-23T07:20:42.704Z,11.60
2022-10-23T07:22:45.531Z,11.76
2022-10-23T07:24:48.377Z,11.91
2022-10-23T07:28:59.804Z,11.87
2022-10-23T07:31:02.893Z,12.00
2022-10-23T07:33:05.503Z,11.96
2022-10-23T07:35:09.739Z,11.96
2022-10-23T07:37:12.337Z,11.94
2022-10-23T07:39:17.365Z,11.96
2022-10-23T07:41:19.980Z,12.00
2022-10-23T07:43:22.680Z,12.00
2022-10-23T07:45:26.719Z,11.91
2022-10-23T07:47:29.307Z,11.97
2022-10-23T07:49:31.973Z,12.00
2022-10-23T07:51:34.613Z,12.03
2022-10-23T07:53:38.051Z,12.08
2022-10-23T07:55:40.628Z,12.11
2022-10-23T07:57:43.239Z,12.13
2022-10-23T07:59:45.775Z,12.18
2022-10-23T08:01:52.583Z,12.21
2022-10-23T08:03:57.712Z,12.21
2022-10-23T08:06:00.951Z,12.20
2022-10-23T08:08:03.498Z,12.25
2022-10-23T08:10:09.628Z,12.26
2022-10-23T08:12:12.254Z,12.31
2022-10-23T08:14:14.819Z,12.35
2022-10-23T08:16:17.423Z,12.38
2022-10-23T08:18:21.392Z,12.43
2022-10-23T08:20:23.921Z,12.55
2022-10-23T08:22:26.594Z,12.58
2022-10-23T08:24:29.152Z,12.65
2022-10-23T08:26:31.961Z,12.69
2022-10-23T08:28:35.068Z,12.73
2022-10-23T08:30:37.961Z,12.77
2022-10-23T08:32:40.579Z,12.81
2022-10-23T08:34:44.498Z,12.90
2022-10-23T08:36:47.143Z,12.91
2022-10-23T08:38:50.469Z,12.91
2022-10-23T08:40:53.806Z,12.95
2022-10-23T08:43:02.352Z,12.90
2022-10-23T08:45:07.852Z,12.94
2022-10-23T08:47:15.693Z,12.98
2022-10-23T08:49:25.383Z,13.01
2022-10-23T08:51:36.048Z,13.04
2022-10-23T08:53:45.008Z,13.06
2022-10-23T08:56:01.940Z,13.08
2022-10-23T08:58:08.241Z,13.12
2022-10-23T09:00:15.342Z,13.15
2022-10-23T09:02:22.259Z,13.20
2022-10-23T09:04:25.041Z,13.21
2022-10-23T09:06:37.903Z,13.30
2022-10-23T09:08:48.211Z,13.31
2022-10-23T09:11:04.583Z,13.34
2022-10-23T09:13:28.249Z,13.40
2022-10-23T09:15:36.580Z,13.44
2022-10-23T09:17:41.407Z,13.55
2022-10-23T09:19:46.117Z,13.61
2022-10-23T09:21:51.170Z,13.62
2022-10-23T09:23:53.769Z,13.62
2022-10-23T09:25:56.965Z,13.68
2022-10-23T09:28:01.468Z,13.73
2022-10-23T09:30:08.722Z,13.73
2022-10-23T09:32:11.306Z,13.78
2022-10-23T09:34:20.391Z,13.81
2022-10-23T09:36:24.493Z,13.82
2022-10-23T09:38:32.908Z,13.91
2022-10-23T09:40:43.540Z,14.03
2022-10-23T09:42:55.537Z,14.03
2022-10-23T09:44:58.481Z,14.05
2022-10-23T09:47:11.128Z,14.08
2022-10-23T09:49:19.459Z,14.11
2022-10-23T09:51:22.844Z,14.28
2022-10-23T09:53:35.015Z,14.29
2022-10-23T09:55:37.674Z,14.37
2022-10-23T09:57:42.973Z,14.37
2022-10-23T09:59:51.195Z,14.38
2022-10-23T10:01:56.142Z,14.40
2022-10-23T10:03:59.039Z,14.50
2022-10-23T10:06:04.047Z,14.57
2022-10-23T10:08:15.864Z,14.55
2022-10-23T10:10:19.764Z,14.57
2022-10-23T10:12:39.814Z,14.58
2022-10-23T10:14:59.318Z,14.67
2022-10-23T10:17:06.516Z,14.67
2022-10-23T10:19:20.115Z,14.70
2022-10-23T10:21:29.552Z,14.79
2022-10-23T10:23:38.827Z,14.82
2022-10-23T10:25:52.372Z,14.83
2022-10-23T10:28:08.401Z,14.94
2022-10-23T10:30:16.507Z,14.99
2022-10-23T10:32:32.440Z,14.99
2022-10-23T10:34:44.234Z,15.00
2022-10-23T10:36:51.803Z,15.00
2022-10-23T10:38:59.769Z,15.15
2022-10-23T10:41:29.175Z,15.11
2022-10-23T10:43:44.796Z,15.15
2022-10-23T10:45:49.476Z,15.18
2022-10-23T10:48:08.369Z,15.21
2022-10-23T10:50:21.539Z,15.23
2022-10-23T10:52:32.451Z,15.24
2022-10-23T10:54:50.657Z,15.24
2022-10-23T10:56:56.507Z,15.26
2022-10-23T10:59:02.434Z,15.25
2022-10-23T11:01:16.306Z,15.28
2022-10-23T11:03:29.717Z,15.37
2022-10-23T11:05:33.929Z,15.38
2022-10-23T11:07:42.642Z,15.37
2022-10-23T11:09:45.602Z,15.41
2022-10-23T11:11:48.788Z,15.51
2022-10-23T11:13:53.929Z,15.51
2022-10-23T11:15:59.536Z,15.51
2022-10-23T11:18:05.758Z,15.51
2022-10-23T11:20:22.563Z,15.55
2022-10-23T11:22:33.718Z,15.56
2022-10-23T11:25:00.553Z,15.57
2022-10-23T11:27:18.330Z,15.56
2022-10-23T11:30:04.538Z,15.57
2022-10-23T11:32:24.898Z,15.56
2022-10-23T11:34:45.109Z,15.59
2022-10-23T11:36:51.520Z,15.63
2022-10-23T11:38:59.091Z,15.67
2022-10-23T11:41:04.610Z,15.73
2022-10-23T11:43:10.485Z,15.79
2022-10-23T11:45:31.204Z,15.86
2022-10-23T11:47:39.773Z,15.91
2022-10-23T11:49:42.879Z,15.98
2022-10-23T11:51:45.480Z,16.02
2022-10-23T11:53:48.078Z,16.06
2022-10-23T11:56:02.061Z,16.08
2022-10-23T11:58:19.354Z,16.11
2022-10-23T12:00:24.004Z,16.16
2022-10-23T12:02:34.627Z,16.20
2022-10-23T12:04:42.085Z,16.24
2022-10-23T12:06:48.720Z,16.30
2022-10-23T12:08:54.847Z,16.38
2022-10-23T12:10:57.647Z,16.42
2022-10-23T12:13:03.751Z,16.44
2022-10-23T12:15:23.176Z,16.52
2022-10-23T12:17:37.450Z,16.73
2022-10-23T12:19:48.872Z,16.75
2022-10-23T12:21:53.791Z,16.80
2022-10-23T12:24:24.213Z,16.83
2022-10-23T12:26:42.204Z,16.88
2022-10-23T12:28:54.916Z,16.93
2022-10-23T12:31:07.532Z,16.93
2022-10-23T12:33:21.778Z,16.94
2022-10-23T12:35:39.179Z,16.98
2022-10-23T12:37:56.341Z,16.99
2022-10-23T12:40:01.854Z,17.08
2022-10-23T12:42:05.437Z,17.11
2022-10-23T12:44:13.490Z,17.14
2022-10-23T12:46:36.709Z,17.18
2022-10-23T12:48:49.357Z,17.22
2022-10-23T12:50:53.924Z,17.22
2022-10-23T12:52:58.368Z,17.24
2022-10-23T12:55:00.942Z,17.25
2022-10-23T12:57:03.514Z,17.25
2022-10-23T12:59:14.635Z,17.23
2022-10-23T13:01:25.885Z,17.24
2022-10-23T13:03:30.864Z,17.39
2022-10-23T13:05:35.050Z,17.40
2022-10-23T13:07:43.831Z,17.46
2022-10-23T13:09:47.067Z,17.49
2022-10-23T13:11:50.733Z,17.51
2022-10-23T13:13:53.697Z,17.51
2022-10-23T13:15:56.256Z,17.56
2022-10-23T13:18:03.997Z,17.59
2022-10-23T13:20:26.316Z,17.60
2022-10-23T13:22:30.268Z,17.64
2022-10-23T13:24:32.952Z,17.67
2022-10-23T13:26:42.780Z,17.73
2022-10-23T13:28:46.609Z,17.81
2022-10-23T13:31:25.155Z,17.92
2022-10-23T13:33:36.199Z,18.01
2022-10-23T13:35:38.850Z,18.09
2022-10-23T13:40:00.271Z,18.20
2022-10-23T13:42:13.340Z,18.24
2022-10-23T13:44:17.989Z,18.23
2022-10-23T13:46:22.977Z,18.23
2022-10-23T13:48:25.652Z,18.23
2022-10-23T13:50:28.228Z,18.23
2022-10-23T13:52:30.855Z,18.20
2022-10-23T13:54:34.787Z,18.12
2022-10-23T13:56:37.392Z,18.11
2022-10-23T13:58:40.099Z,18.06
2022-10-23T14:00:43.781Z,17.96
2022-10-23T14:02:46.460Z,17.85
2022-10-23T14:04:52.349Z,17.73
2022-10-23T14:06:58.435Z,17.61
2022-10-23T14:09:01.315Z,17.50
2022-10-23T14:11:05.514Z,17.42
2022-10-23T14:13:08.149Z,17.33
2022-10-23T14:15:12.255Z,17.24
2022-10-23T14:17:14.839Z,17.17
2022-10-23T14:19:17.430Z,17.10
2022-10-23T14:21:21.693Z,17.05
2022-10-23T14:23:24.299Z,17.00
2022-10-23T14:25:26.876Z,16.94
2022-10-23T14:27:31.153Z,16.90
2022-10-23T14:29:33.804Z,16.87
2022-10-23T14:31:36.401Z,16.83
2022-10-23T14:33:39.918Z,16.80
2022-10-23T14:35:43.263Z,16.79
2022-10-23T14:37:46.406Z,16.77
2022-10-23T14:39:50.326Z,16.75
2022-10-23T14:41:53.160Z,16.71
2022-10-23T14:43:57.111Z,16.70
2022-10-23T14:46:09.346Z,16.70
2022-10-23T14:48:11.996Z,16.76
2022-10-23T14:50:15.127Z,16.83
2022-10-23T14:52:17.724Z,16.91
2022-10-23T14:54:20.355Z,16.94
2022-10-23T14:56:23.319Z,16.98
2022-10-23T14:58:25.941Z,16.99
2022-10-23T15:00:29.917Z,17.00
2022-10-23T15:02:32.571Z,16.99
2022-10-23T15:04:35.333Z,17.00
2022-10-23T15:06:38.747Z,17.00
2022-10-23T15:08:41.296Z,16.99
2022-10-23T15:10:43.932Z,16.98
2022-10-23T15:12:46.833Z,16.97
2022-10-23T15:14:49.499Z,16.93
2022-10-23T15:16:53.520Z,16.91
2022-10-23T15:18:56.360Z,16.88
2022-10-23T15:20:59.200Z,16.87
2022-10-23T15:23:02.926Z,16.86
2022-10-23T15:25:06.487Z,16.83
2022-10-23T15:29:17.417Z,16.82
2022-10-23T15:31:46.232Z,16.85
2022-10-23T15:33:50.225Z,16.85
2022-10-23T15:35:54.149Z,16.85
2022-10-23T15:37:56.726Z,16.85
2022-10-23T15:40:01.413Z,16.86
2022-10-23T15:42:07.246Z,16.91
2022-10-23T15:44:12.958Z,16.99
2022-10-23T15:46:15.621Z,17.00
2022-10-23T15:48:18.306Z,17.04
2022-10-23T15:50:22.285Z,17.06
2022-10-23T15:52:24.914Z,17.08
2022-10-23T15:54:30.530Z,17.11
2022-10-23T15:56:36.245Z,17.18
2022-10-23T15:58:38.905Z,17.15
2022-10-23T16:00:41.454Z,17.30
2022-10-23T16:02:44.616Z,17.27
2022-10-23T16:04:47.418Z,17.34
2022-10-23T16:06:51.480Z,17.46
2022-10-23T16:11:01.651Z,17.42
2022-10-23T16:13:04.259Z,17.39
2022-10-23T16:15:08.299Z,17.36
2022-10-23T16:17:13.185Z,17.33
2022-10-23T16:19:15.858Z,17.25
2022-10-23T16:21:21.935Z,17.17
2022-10-23T16:23:28.129Z,17.14
2022-10-23T16:25:30.711Z,17.11
2022-10-23T16:27:33.258Z,17.06
2022-10-23T16:29:36.321Z,17.04
2022-10-23T16:31:38.917Z,17.00
2022-10-23T16:33:41.544Z,16.96
2022-10-23T16:35:44.115Z,16.94
2022-10-23T16:37:46.979Z,16.91
2022-10-23T16:39:50.956Z,16.89
2022-10-23T16:41:53.539Z,16.89
2022-10-23T16:43:56.304Z,17.06
2022-10-23T16:46:03.914Z,17.12
2022-10-23T16:48:06.825Z,17.14
2022-10-23T16:50:09.551Z,17.24
2022-10-23T16:52:12.254Z,17.60
2022-10-23T16:54:15.456Z,17.54
2022-10-23T16:56:23.048Z,17.58
2022-10-23T16:58:26.475Z,17.52
2022-10-23T17:00:35.159Z,17.67
2022-10-23T17:02:38.266Z,17.77
2022-10-23T17:04:41.220Z,17.75
2022-10-23T17:06:43.840Z,17.84
2022-10-23T17:08:47.053Z,17.89
2022-10-23T17:10:49.666Z,17.86
2022-10-23T17:12:53.726Z,17.82
2022-10-23T17:14:56.310Z,17.77
2022-10-23T17:17:01.033Z,17.82
2022-10-23T17:19:16.000Z,17.75
2022-10-23T17:21:24.088Z,17.79
2022-10-23T17:23:26.740Z,17.82
2022-10-23T17:25:29.321Z,17.75
2022-10-23T17:27:32.011Z,17.67
2022-10-23T17:29:36.268Z,17.60
2022-10-23T17:31:40.804Z,17.52
2022-10-23T17:33:44.161Z,17.45
2022-10-23T17:35:47.302Z,17.39
2022-10-23T17:37:50.527Z,17.37
2022-10-23T17:39:53.118Z,17.38
2022-10-23T17:41:56.378Z,17.40
2022-10-23T17:44:00.211Z,17.40
2022-10-23T17:46:06.396Z,17.37
2022-10-23T17:48:09.509Z,17.39
2022-10-23T17:50:13.038Z,17.52
2022-10-23T17:52:16.628Z,17.62
2022-10-23T17:54:19.246Z,17.62
2022-10-23T17:56:24.113Z,17.61
2022-10-23T17:58:26.658Z,17.59
2022-10-23T18:00:29.225Z,17.54
2022-10-23T18:02:33.270Z,17.49
2022-10-23T18:04:35.863Z,17.43
2022-10-23T18:06:43.334Z,17.38
2022-10-23T18:08:47.122Z,17.34
2022-10-23T18:10:49.823Z,17.34
2022-10-23T18:12:52.411Z,17.41
2022-10-23T18:14:56.273Z,17.45
2022-10-23T18:16:58.964Z,17.41
2022-10-23T18:19:04.137Z,17.38
2022-10-23T18:21:07.886Z,17.53
2022-10-23T18:23:13.059Z,17.41
2022-10-23T18:25:15.607Z,17.39
2022-10-23T18:27:18.241Z,17.34
2022-10-23T18:29:21.231Z,17.30
2022-10-23T18:31:25.476Z,17.26
2022-10-23T18:33:28.058Z,17.22
2022-10-23T18:35:34.817Z,17.19
2022-10-23T18:37:41.290Z,17.17
2022-10-23T18:39:44.287Z,17.12
2022-10-23T18:41:47.357Z,17.11
2022-10-23T18:43:50.468Z,17.10
2022-10-23T18:45:53.046Z,17.06
2022-10-23T18:47:55.914Z,17.05
2022-10-23T18:49:58.512Z,17.03
2022-10-23T18:52:03.389Z,17.03
2022-10-23T18:54:11.398Z,17.01
2022-10-23T18:56:14.250Z,17.01
2022-10-23T18:58:17.237Z,17.01
2022-10-23T19:00:19.895Z,17.02
2022-10-23T19:02:22.701Z,17.00
2022-10-23T19:04:25.485Z,16.98
2022-10-23T19:06:28.903Z,16.94
2022-10-23T19:08:32.803Z,16.94
2022-10-23T19:10:36.259Z,17.14
2022-10-23T19:12:42.063Z,17.14
2022-10-23T19:14:45.084Z,17.21
2022-10-23T19:16:59.100Z,17.41
2022-10-23T19:19:05.426Z,17.47
2022-10-23T19:21:08.265Z,17.42
2022-10-23T19:23:12.847Z,17.44
2022-10-23T19:25:22.322Z,17.43
2022-10-23T19:27:26.663Z,17.55
2022-10-23T19:29:29.989Z,17.78
2022-10-23T19:31:32.662Z,17.91
2022-10-23T19:33:36.083Z,18.47
2022-10-23T19:35:38.729Z,18.58
2022-10-23T19:37:41.675Z,18.54
2022-10-23T19:39:46.909Z,18.88
2022-10-23T19:41:53.587Z,18.95
2022-10-23T19:43:56.221Z,19.07
2022-10-23T19:46:03.967Z,19.06
2022-10-23T19:48:09.073Z,18.97
2022-10-23T19:50:11.639Z,18.96
2022-10-23T19:52:14.201Z,19.05
2022-10-23T19:54:16.800Z,19.07
2022-10-23T19:56:19.348Z,18.81
2022-10-23T19:58:23.320Z,18.82
2022-10-23T20:00:26.825Z,18.81
2022-10-23T20:02:29.716Z,18.67
2022-10-23T20:04:32.469Z,18.56
2022-10-23T20:06:36.384Z,18.60
2022-10-23T20:08:39.700Z,18.37
2022-10-23T20:10:43.326Z,18.42
2022-10-23T20:12:56.354Z,18.65
2022-10-23T20:15:07.708Z,18.51
2022-10-23T20:17:10.349Z,18.47
2022-10-23T20:21:23.687Z,18.67
2022-10-23T20:23:26.787Z,18.81
2022-10-23T20:25:29.526Z,18.72
2022-10-23T20:27:32.151Z,18.74
2022-10-23T20:29:34.732Z,18.78
2022-10-23T20:31:39.426Z,18.69
2022-10-23T20:33:42.607Z,18.79
2022-10-23T20:35:45.271Z,18.90
2022-10-23T20:37:47.909Z,18.88
2022-10-23T20:39:50.729Z,18.68
2022-10-23T20:41:55.139Z,18.48
2022-10-23T20:43:57.773Z,18.78
2022-10-23T20:46:04.729Z,18.95
2022-10-23T20:48:08.867Z,18.61
2022-10-23T20:50:11.423Z,18.63
2022-10-23T20:52:14.204Z,18.54
2022-10-23T20:54:16.752Z,18.74
2022-10-23T20:56:23.182Z,18.96
2022-10-23T20:58:28.209Z,18.75
2022-10-23T21:00:33.540Z,18.63
2022-10-23T21:02:36.172Z,18.71
2022-10-23T21:04:40.099Z,18.76
2022-10-23T21:07:04.441Z,18.87
2022-10-23T21:09:07.432Z,18.73
2022-10-23T21:11:12.289Z,19.01
2022-10-23T21:13:15.086Z,18.99
2022-10-23T21:15:18.017Z,18.97
2022-10-23T21:17:20.664Z,18.80
2022-10-23T21:19:23.468Z,18.78
2022-10-23T21:21:28.226Z,18.97
2022-10-23T21:23:30.799Z,19.17
2022-10-23T21:25:33.375Z,19.09
2022-10-23T21:27:36.007Z,19.04
2022-10-23T21:29:38.585Z,19.09
2022-10-23T21:31:41.228Z,19.04
2022-10-23T21:33:46.761Z,19.11
2022-10-23T21:35:58.372Z,19.29
2022-10-23T21:38:02.552Z,19.11
2022-10-23T21:40:06.230Z,19.45
2022-10-23T21:42:08.933Z,19.52
2022-10-23T21:44:13.802Z,19.49
2022-10-23T21:46:18.469Z,19.43
2022-10-23T21:48:20.995Z,19.45
2022-10-23T21:50:23.608Z,19.40
2022-10-23T21:52:26.258Z,19.26
2022-10-23T21:54:30.175Z,19.17
2022-10-23T21:56:35.126Z,19.37
2022-10-23T21:58:37.709Z,19.32
2022-10-23T22:00:40.321Z,19.28
2022-10-23T22:02:43.312Z,19.31
2022-10-23T22:04:46.181Z,19.18
2022-10-23T22:06:50.581Z,19.04
2022-10-23T22:08:54.383Z,19.04
2022-10-23T22:10:58.409Z,19.03
2022-10-23T22:13:00.969Z,19.22
2022-10-23T22:15:03.541Z,19.25
2022-10-23T22:17:06.560Z,19.02
2022-10-23T22:19:09.305Z,18.87
2022-10-23T22:21:13.980Z,19.10
2022-10-23T22:23:16.595Z,18.88
2022-10-23T22:25:19.264Z,18.78
2022-10-23T22:27:23.225Z,18.69
2022-10-23T22:29:27.863Z,18.84
2022-10-23T22:31:32.528Z,18.75
2022-10-23T22:33:35.099Z,18.76
2022-10-23T22:35:37.649Z,18.78
2022-10-23T22:37:40.185Z,18.79
2022-10-23T22:39:42.824Z,18.98
2022-10-23T22:41:48.608Z,18.84
2022-10-23T22:43:56.601Z,18.66
2022-10-23T22:46:04.501Z,18.54
2022-10-23T22:48:08.376Z,18.43
2022-10-23T22:50:11.196Z,18.36
2022-10-23T22:52:13.983Z,18.30
2022-10-23T22:54:16.534Z,18.20
2022-10-23T22:56:22.066Z,18.19
2022-10-23T22:58:26.673Z,18.09
2022-10-23T23:00:30.610Z,18.00
2022-10-23T23:02:33.147Z,18.00
2022-10-23T23:04:38.220Z,17.95
2022-10-23T23:06:41.421Z,18.08
2022-10-23T23:08:44.269Z,17.97
2022-10-23T23:10:53.157Z,17.92
2022-10-23T23:12:55.719Z,17.95
2022-10-23T23:14:58.934Z,17.84
2022-10-23T23:17:03.092Z,17.77
2022-10-23T23:19:05.780Z,17.75
2022-10-23T23:21:08.340Z,17.69
2022-10-23T23:23:11.746Z,17.66
2022-10-23T23:25:14.369Z,17.63
2022-10-23T23:27:19.520Z,17.60
2022-10-23T23:29:22.098Z,17.56
2022-10-23T23:31:26.193Z,17.52
2022-10-23T23:33:30.176Z,17.48
2022-10-23T23:35:32.767Z,17.53
2022-10-23T23:37:35.354Z,17.75
2022-10-23T23:39:37.955Z,18.26
2022-10-23T23:41:40.553Z,18.07
2022-10-23T23:43:43.799Z,18.22
2022-10-23T23:45:46.449Z,18.15
2022-10-23T23:47:49.001Z,18.07
2022-10-23T23:49:52.933Z,18.23
2022-10-23T23:51:55.542Z,18.32
2022-10-23T23:53:58.183Z,18.56
2022-10-23T23:56:00.785Z,18.61
2022-10-23T23:58:03.432Z,18.56
